Main page
METAR-TAF:

METAR-TAF

Airports :

Altenstadt Air Base

Altenstadt, Germany

latitude: 47-50N, longitude: 010-52E, elevation: 739 m

Current weather observation

The report was made 42 minutes ago, at 07:20 UTC
Wind 3 kt from the Southwest
Temperature 5°C
Humidity 56%
Pressure 1014 hPa
Visibility 10 km or more
Few clouds at a height of 7000 ft

METAR: ETHA 030720Z 22003KT 9999 FEW070 05/M03 Q1014 BLU+BLU+

Time: 10:02 (08:02 UTC)

Forecast

The report was made 32 minutes ago, at 07:30 UTC
Forecast valid from 03 at 08 UTC to 03 at 17 UTC
Wind 10 kt from the West
Visibility 10 km or more
Scattered clouds at a height of 6000 ft
Becoming
from 03 at 14 UTC to 03 at 16 UTC
Wind 10 kt from the West/Northwest with gusts up to 20 kt
Visibility: 0920 m
Few clouds at a height of 2500 ft
Broken clouds at a height of 6000 ft

TAF: ETHA 030730Z 0308/0317 28010KT 9999 NSW SCT060 BECMG 0314/0316 30010G20KT 9999 NSW FEW025 BKN060 CANCEL 0920

Weather observations and forecasts of more than 4000 airports (METAR and TAF reports).

The available stations are represented by yellow and red dots on the map.

Hover mouse over dot to see the name of the station.

Then click to see weather observations and forecasts.

To change the map : click on the green buttons with a black cross to zoom in, on the green button with a dash to zoom out, or on the green arrows for adjacent maps.


METAR-TAF: